Time;durP1;ratioP1;P1;durP2;ratioP2;P2;SDS_P1;SDS_P2;PMS_P1;PMS_P2;Temp;Humidity;BMP_temperature;BMP_pressure;BME280_temperature;BME280_humidity;BME280_pressure;Samples;Min_cycle;Max_cycle;Signal;HPM_P1;HPM_P2
2022/08/30 00:03:23;;;;;;;;;;;;;;;-144.99;83.80;52254.47;4972786;28;20013;-75
2022/08/30 00:05:52;;;;;;;;;;;;;;;-144.99;84.06;52313.56;4967210;28;20131;-76
2022/08/30 00:08:18;;;;;;;;;;;;;;;-144.99;84.41;52321.72;4968839;28;19926;-75
2022/08/30 00:10:49;;;;;;;;;;;;;;;-144.99;84.61;52264.66;4972396;28;19926;-75
2022/08/30 00:13:16;;;;;;;;;;;;;;;-144.99;84.63;52289.13;4974934;28;19984;-76
2022/08/30 00:15:43;;;;;;;;;;;;;;;-144.99;85.28;52321.72;4968541;28;19933;-75
2022/08/30 00:18:10;;;;;;;;;;;;;;;-144.99;85.74;52293.19;4971750;28;20030;-75
2022/08/30 00:20:38;;;;;;;;;;;;;;;-144.99;85.89;52285.03;4971587;28;19961;-75
2022/08/30 00:23:05;;;;;;;;;;;;;;;-144.99;85.76;52264.66;4971414;28;20119;-75
2022/08/30 00:25:32;;;;;;;;;;;;;;;-144.99;85.98;52272.81;4969588;28;19934;-76
2022/08/30 00:27:59;;;;;;;;;;;;;;;-144.99;86.53;52311.53;4971893;28;19926;-76
2022/08/30 00:30:26;;;;;;;;;;;;;;;-144.99;86.54;52295.22;4971849;28;19930;-74
2022/08/30 00:32:53;;;;;;;;;;;;;;;-144.99;86.35;52268.72;4971325;28;19926;-75
2022/08/30 00:35:19;;;;;;;;;;;;;;;-144.99;86.58;52285.03;4969427;28;19934;-74
2022/08/30 00:37:46;;;;;;;;;;;;;;;-144.99;87.09;52293.19;4970907;28;19934;-74
2022/08/30 00:40:14;;;;;;;;;;;;;;;-144.99;86.79;52293.19;4969291;28;19926;-76
2022/08/30 00:42:41;;;;;;;;;;;;;;;-144.99;87.02;52289.13;4971595;28;20010;-76
2022/08/30 00:45:12;;;;;;;;;;;;;;;-144.99;86.99;52305.41;4972231;28;20313;-76
2022/08/30 00:47:39;;;;;;;;;;;;;;;-144.99;87.67;52256.50;4968973;28;19926;-77
2022/08/30 00:50:07;;;;;;;;;;;;;;;-144.99;88.02;52278.91;4971588;28;19930;-76
2022/08/30 00:52:34;;;;;;;;;;;;;;;-144.99;87.89;52313.56;4971857;28;20385;-76
2022/08/30 00:55:01;;;;;;;;;;;;;;;-144.99;87.70;52280.97;4974364;28;19973;-77
2022/08/30 00:57:28;;;;;;;;;;;;;;;-144.99;87.41;52311.53;4969788;28;20326;-76
2022/08/30 00:59:54;;;;;;;;;;;;;;;-144.99;86.85;52276.88;4972110;28;20345;-76
2022/08/30 01:02:23;;;;;;;;;;;;;;;-144.99;86.67;52287.06;4971691;28;19926;-75
2022/08/30 01:04:51;;;;;;;;;;;;;;;-144.99;86.90;52333.94;4977080;28;19930;-77
2022/08/30 01:07:17;;;;;;;;;;;;;;;-144.99;87.07;52297.25;4966772;28;20522;-76
2022/08/30 01:09:44;;;;;;;;;;;;;;;-144.99;86.95;52280.97;4974557;28;20432;-76
2022/08/30 01:12:11;;;;;;;;;;;;;;;-144.99;87.16;52283.00;4972756;28;19927;-77
2022/08/30 01:14:37;;;;;;;;;;;;;;;-144.99;87.17;52264.66;4973669;28;19944;-77
2022/08/30 01:17:04;;;;;;;;;;;;;;;-144.99;86.79;52293.19;4970099;28;19954;-76
2022/08/30 01:19:35;;;;;;;;;;;;;;;-144.99;86.72;52313.56;4972664;28;20359;-77
2022/08/30 01:22:05;;;;;;;;;;;;;;;-144.99;86.53;52317.66;4974663;28;20419;-77
2022/08/30 01:24:33;;;;;;;;;;;;;;;-144.99;86.16;52280.97;4976163;28;19952;-77
2022/08/30 01:26:59;;;;;;;;;;;;;;;-144.99;85.86;52260.56;4974872;28;19973;-75
2022/08/30 01:29:26;;;;;;;;;;;;;;;-144.99;85.69;52244.28;4972917;28;20016;-75
2022/08/30 01:31:52;;;;;;;;;;;;;;;-144.99;85.43;52295.22;4975133;28;19927;-76
2022/08/30 01:34:19;;;;;;;;;;;;;;;-144.99;85.20;52297.25;4977419;28;20001;-77
2022/08/30 01:36:46;;;;;;;;;;;;;;;-144.99;84.84;52289.13;4975441;28;20016;-77
2022/08/30 01:39:14;;;;;;;;;;;;;;;-144.99;84.58;52289.13;4964189;28;19941;-76
2022/08/30 01:41:42;;;;;;;;;;;;;;;-144.99;84.28;52260.56;4971649;28;20638;-76
2022/08/30 01:44:10;;;;;;;;;;;;;;;-144.99;83.80;52280.97;4971370;28;20406;-76
2022/08/30 01:46:37;;;;;;;;;;;;;;;-144.99;83.41;52268.72;4972756;28;19930;-76
2022/08/30 01:49:05;;;;;;;;;;;;;;;-144.99;82.99;52293.19;4970835;28;19926;-77
2022/08/30 01:51:31;;;;;;;;;;;;;;;-144.99;83.10;52346.19;4972151;28;19933;-76
2022/08/30 01:53:58;;;;;;;;;;;;;;;-144.99;82.53;52256.50;4972247;28;19930;-76
2022/08/30 01:56:25;;;;;;;;;;;;;;;-144.99;82.42;52293.19;4972828;28;19926;-76
2022/08/30 01:58:54;;;;;;;;;;;;;;;-144.99;81.90;52289.13;4965159;28;20393;-75
2022/08/30 02:01:22;;;;;;;;;;;;;;;-144.99;82.04;52297.25;4974025;28;19970;-76
2022/08/30 02:03:48;;;;;;;;;;;;;;;-144.99;81.59;52256.50;4973489;28;20005;-75
2022/08/30 02:06:17;;;;;;;;;;;;;;;-144.99;82.11;52301.34;4979788;28;20337;-75
2022/08/30 02:08:44;;;;;;;;;;;;;;;-144.99;82.19;52260.56;4970286;28;20016;-76
2022/08/30 02:11:11;;;;;;;;;;;;;;;-144.99;82.03;52309.50;4976973;28;19970;-75
2022/08/30 02:13:38;;;;;;;;;;;;;;;-144.99;81.98;52270.78;4976945;28;19930;-74
2022/08/30 02:16:08;;;;;;;;;;;;;;;-144.99;81.86;52289.13;4976637;28;20017;-75
2022/08/30 02:18:34;;;;;;;;;;;;;;;-144.99;82.02;52272.81;4974702;28;19930;-77
2022/08/30 02:21:01;;;;;;;;;;;;;;;-144.99;81.93;52289.13;4974924;28;19986;-76
2022/08/30 02:23:27;;;;;;;;;;;;;;;-144.99;81.81;52303.38;4976229;28;20029;-76
2022/08/30 02:25:54;;;;;;;;;;;;;;;-144.99;81.66;52297.25;4977556;28;19997;-76
2022/08/30 02:28:20;;;;;;;;;;;;;;;-144.99;81.64;52285.03;4974897;28;19930;-75
2022/08/30 02:30:47;;;;;;;;;;;;;;;-144.99;81.64;52303.38;4971381;28;19936;-75
2022/08/30 02:33:15;;;;;;;;;;;;;;;-144.99;81.84;52272.81;4974621;28;19926;-75
2022/08/30 02:35:41;;;;;;;;;;;;;;;-144.99;81.85;52268.72;4974241;28;19930;-75
2022/08/30 02:38:08;;;;;;;;;;;;;;;-144.99;81.68;52285.03;4974717;28;19933;-75
2022/08/30 02:40:35;;;;;;;;;;;;;;;-144.99;81.68;52301.34;4970940;28;19926;-76
2022/08/30 02:43:01;;;;;;;;;;;;;;;-144.99;81.54;52329.88;4974621;28;20008;-75
2022/08/30 02:45:28;;;;;;;;;;;;;;;-144.99;81.45;52289.13;4974847;28;19933;-76
2022/08/30 02:47:55;;;;;;;;;;;;;;;-144.99;81.23;52305.41;4976484;28;20093;-77
2022/08/30 02:50:23;;;;;;;;;;;;;;;-144.99;81.25;52264.66;4974153;28;19953;-76
2022/08/30 02:52:50;;;;;;;;;;;;;;;-144.99;81.31;52283.00;4979437;28;19932;-76
2022/08/30 02:55:16;;;;;;;;;;;;;;;-144.99;81.18;52254.47;4981178;28;20012;-76
2022/08/30 02:57:43;;;;;;;;;;;;;;;-144.99;81.28;52256.50;4985587;28;19981;-76
2022/08/30 03:00:11;;;;;;;;;;;;;;;-144.99;81.03;52305.41;4979408;28;19934;-74
2022/08/30 03:02:39;;;;;;;;;;;;;;;-144.99;81.33;52280.97;4972971;28;19936;-75
2022/08/30 03:05:05;;;;;;;;;;;;;;;-144.99;81.09;52315.59;4986072;28;19950;-75
2022/08/30 03:07:33;;;;;;;;;;;;;;;-144.99;80.83;52250.38;4981370;28;20394;-73
2022/08/30 03:10:00;;;;;;;;;;;;;;;-144.99;81.01;52248.34;4977141;28;20641;-74
2022/08/30 03:12:26;;;;;;;;;;;;;;;-144.99;80.94;52297.25;4979492;28;19936;-74
2022/08/30 03:14:53;;;;;;;;;;;;;;;-144.99;80.55;52260.56;4981058;28;19965;-75
2022/08/30 03:17:19;;;;;;;;;;;;;;;-144.99;80.61;52289.13;4981665;28;20017;-74
2022/08/30 03:19:46;;;;;;;;;;;;;;;-144.99;80.48;52264.66;4980897;28;19926;-74
2022/08/30 03:22:12;;;;;;;;;;;;;;;-144.99;80.44;52289.13;4966250;28;21685;-75
2022/08/30 03:24:40;;;;;;;;;;;;;;;-144.99;80.91;52209.63;4980368;28;20017;-76
2022/08/30 03:27:06;;;;;;;;;;;;;;;-144.99;81.44;52276.88;4974214;28;20313;-76
2022/08/30 03:29:33;;;;;;;;;;;;;;;-144.99;81.36;52289.13;4973311;28;19930;-76
2022/08/30 03:32:00;;;;;;;;;;;;;;;-144.99;81.62;52338.03;4969838;28;20397;-75
2022/08/30 03:34:26;;;;;;;;;;;;;;;-144.99;81.74;52285.03;4973603;28;20029;-76
2022/08/30 03:36:54;;;;;;;;;;;;;;;-144.99;81.35;52293.19;4972796;28;20470;-76
2022/08/30 03:39:22;;;;;;;;;;;;;;;-144.99;81.35;52276.88;4973790;28;19932;-77
2022/08/30 03:41:50;;;;;;;;;;;;;;;-144.99;81.40;52264.66;4969170;28;20022;-78
2022/08/30 03:44:16;;;;;;;;;;;;;;;-144.99;81.21;52285.03;4973718;28;19926;-75
2022/08/30 03:46:44;;;;;;;;;;;;;;;-144.99;81.31;52285.03;4973497;28;19942;-76
2022/08/30 03:49:10;;;;;;;;;;;;;;;-144.99;81.72;52291.16;4973459;28;19926;-75
2022/08/30 03:51:36;;;;;;;;;;;;;;;-144.99;81.74;52321.72;4968260;28;20013;-75
2022/08/30 03:54:03;;;;;;;;;;;;;;;-144.99;81.70;52289.13;4972304;28;19956;-75
2022/08/30 03:56:29;;;;;;;;;;;;;;;-144.99;81.34;52260.56;4973135;28;19936;-75
2022/08/30 03:58:57;;;;;;;;;;;;;;;-144.99;81.36;52301.34;4973254;28;19926;-73
2022/08/30 04:01:24;;;;;;;;;;;;;;;-144.99;81.51;52313.56;4971757;28;19933;-74
2022/08/30 04:03:50;;;;;;;;;;;;;;;-144.99;81.77;52301.34;4969661;28;19972;-74
2022/08/30 04:06:16;;;;;;;;;;;;;;;-144.99;81.89;52280.97;4973039;28;19932;-74
2022/08/30 04:08:44;;;;;;;;;;;;;;;-144.99;81.94;52305.41;4973226;28;20006;-74
2022/08/30 04:11:11;;;;;;;;;;;;;;;-144.99;82.34;52280.97;4975061;28;20305;-75
2022/08/30 04:13:37;;;;;;;;;;;;;;;-144.99;82.21;52299.31;4971975;28;20313;-75
2022/08/30 04:16:05;;;;;;;;;;;;;;;-144.99;82.35;52272.81;4974289;28;19933;-75
2022/08/30 04:18:33;;;;;;;;;;;;;;;-144.99;82.37;52280.97;4972907;28;19926;-73
2022/08/30 04:21:00;;;;;;;;;;;;;;;-144.99;82.94;52285.03;4972280;28;20448;-74
2022/08/30 04:23:27;;;;;;;;;;;;;;;-144.99;82.68;52280.97;4970348;28;20369;-75
2022/08/30 04:25:54;;;;;;;;;;;;;;;-144.99;82.46;52264.66;4972665;28;20481;-74
2022/08/30 04:28:20;;;;;;;;;;;;;;;-144.99;82.32;52305.41;4972836;28;19927;-73
2022/08/30 04:30:47;;;;;;;;;;;;;;;-144.99;82.67;52278.91;4973871;28;19926;-75
2022/08/30 04:33:15;;;;;;;;;;;;;;;-144.99;82.62;52301.34;4965981;28;19926;-75
2022/08/30 04:35:42;;;;;;;;;;;;;;;-144.99;82.52;52289.13;4971834;28;19926;-75
2022/08/30 04:38:09;;;;;;;;;;;;;;;-144.99;82.71;52305.41;4960444;28;20021;-74
2022/08/30 04:40:35;;;;;;;;;;;;;;;-144.99;82.64;52309.50;4969182;28;20013;-74
2022/08/30 04:43:02;;;;;;;;;;;;;;;-144.99;82.42;52317.66;4968135;28;19941;-75
2022/08/30 04:45:28;;;;;;;;;;;;;;;-144.99;82.27;52276.88;4971255;28;19930;-75
2022/08/30 04:47:55;;;;;;;;;;;;;;;-144.99;82.27;52252.44;4971167;28;20029;-75
2022/08/30 04:50:22;;;;;;;;;;;;;;;-144.99;82.46;52256.50;4971198;28;19926;-75
2022/08/30 04:52:49;;;;;;;;;;;;;;;-144.99;82.32;52280.97;4971169;28;19930;-75
2022/08/30 04:55:15;;;;;;;;;;;;;;;-144.99;82.58;52280.97;4969151;28;19926;-75
2022/08/30 04:57:42;;;;;;;;;;;;;;;-144.99;82.29;52260.56;4972098;28;20374;-76
2022/08/30 05:00:10;;;;;;;;;;;;;;;-144.99;82.55;52289.13;4972002;28;19934;-76
2022/08/30 05:02:37;;;;;;;;;;;;;;;-144.99;82.21;52272.81;4972482;28;19948;-77
2022/08/30 05:07:49;;;;;;;;;;;;;;;-144.99;81.71;52280.97;4974079;28;19957;-79
2022/08/30 05:10:16;;;;;;;;;;;;;;;-144.99;81.61;52280.97;4980572;28;19941;-77
2022/08/30 05:12:42;;;;;;;;;;;;;;;-144.99;81.40;52283.00;4973591;28;19927;-77
2022/08/30 05:15:09;;;;;;;;;;;;;;;-144.99;80.50;52305.41;4284491;28;10000725;-76
2022/08/30 05:17:36;;;;;;;;;;;;;;;-144.99;80.71;52285.03;4969747;28;19937;-75
2022/08/30 05:20:03;;;;;;;;;;;;;;;-144.99;80.64;52240.19;4969563;28;20493;-75
2022/08/30 05:22:30;;;;;;;;;;;;;;;-144.99;80.57;52297.25;4969362;28;19930;-76
2022/08/30 05:24:59;;;;;;;;;;;;;;;-144.99;80.61;52276.88;4964080;28;19931;-76
2022/08/30 05:27:25;;;;;;;;;;;;;;;-144.99;80.32;52276.88;4965645;28;19936;-77
2022/08/30 05:29:51;;;;;;;;;;;;;;;-144.99;80.30;52276.88;4971191;28;19954;-76
2022/08/30 05:32:18;;;;;;;;;;;;;;;-144.99;80.37;52297.25;4970043;28;19925;-77
2022/08/30 05:34:44;;;;;;;;;;;;;;;-144.99;80.46;52321.72;4966443;28;20028;-75
2022/08/30 05:37:10;;;;;;;;;;;;;;;-144.99;80.48;52293.19;4968386;28;19936;-75
2022/08/30 05:39:37;;;;;;;;;;;;;;;-144.99;80.87;52268.72;4969402;28;19930;-76
2022/08/30 05:42:05;;;;;;;;;;;;;;;-144.99;80.77;52295.22;4969481;28;20331;-77
2022/08/30 05:44:31;;;;;;;;;;;;;;;-144.99;80.75;52240.19;4969209;28;20440;-75
2022/08/30 05:46:58;;;;;;;;;;;;;;;-144.99;80.87;52276.88;4964521;28;20017;-76
2022/08/30 05:49:24;;;;;;;;;;;;;;;-144.99;80.70;52295.22;4968778;28;20024;-76
2022/08/30 05:51:50;;;;;;;;;;;;;;;-144.99;80.96;52260.56;4968120;28;19930;-76
2022/08/30 05:54:17;;;;;;;;;;;;;;;-144.99;80.98;52287.06;4969866;28;19949;-75
2022/08/30 05:56:45;;;;;;;;;;;;;;;-144.99;81.32;52276.88;4965829;28;19926;-75
2022/08/30 05:59:13;;;;;;;;;;;;;;;-144.99;80.94;52297.25;4971709;28;20025;-76
2022/08/30 06:01:41;;;;;;;;;;;;;;;-144.99;80.87;52252.44;4971954;28;19930;-76
2022/08/30 06:04:08;;;;;;;;;;;;;;;-144.99;81.00;52313.56;4973152;28;20653;-76
2022/08/30 06:06:35;;;;;;;;;;;;;;;-144.99;80.45;52268.72;4971451;28;19936;-76
2022/08/30 06:09:03;;;;;;;;;;;;;;;-144.99;80.48;52289.13;4972981;28;19956;-76
2022/08/30 06:11:29;;;;;;;;;;;;;;;-144.99;80.64;52266.69;4972858;28;20009;-75
2022/08/30 06:13:56;;;;;;;;;;;;;;;-144.99;80.07;52268.72;4973748;28;20097;-77
2022/08/30 06:16:25;;;;;;;;;;;;;;;-144.99;79.85;52278.91;4969336;28;20067;-76
2022/08/30 06:18:54;;;;;;;;;;;;;;;-144.99;79.60;52280.97;4968707;28;20602;-77
2022/08/30 06:21:21;;;;;;;;;;;;;;;-144.99;79.55;52272.81;4972857;28;19930;-75
2022/08/30 06:23:48;;;;;;;;;;;;;;;-144.99;78.96;52293.19;4974189;28;19980;-76
2022/08/30 06:26:14;;;;;;;;;;;;;;;-144.99;78.66;52262.63;4972804;28;19997;-76
2022/08/30 06:28:41;;;;;;;;;;;;;;;-144.99;78.33;52225.94;4968688;28;19929;-76
2022/08/30 06:31:08;;;;;;;;;;;;;;;-144.99;78.03;52248.34;4973653;28;20481;-76
2022/08/30 06:33:36;;;;;;;;;;;;;;;-144.99;78.43;52264.66;4971694;28;20045;-75
2022/08/30 06:36:03;;;;;;;;;;;;;;;-144.99;78.43;52248.34;4971409;28;19969;-75
2022/08/30 06:38:29;;;;;;;;;;;;;;;-144.99;78.09;52256.50;4970410;28;20308;-75
2022/08/30 06:40:55;;;;;;;;;;;;;;;-144.99;78.27;52268.72;4969374;28;20028;-75
2022/08/30 06:43:22;;;;;;;;;;;;;;;-144.99;78.11;52230.00;4972709;28;19926;-77
2022/08/30 06:45:48;;;;;;;;;;;;;;;-144.99;78.04;52240.19;4972826;28;19940;-78
2022/08/30 06:48:14;;;;;;;;;;;;;;;-144.99;77.44;52203.50;4968090;28;20001;-76
2022/08/30 06:50:43;;;;;;;;;;;;;;;-144.99;76.95;52232.03;4976279;28;19997;-77
2022/08/30 06:53:10;;;;;;;;;;;;;;;-144.99;76.51;52215.75;4973253;28;19930;-76
2022/08/30 06:55:37;;;;;;;;;;;;;;;-144.99;76.31;52215.75;4972971;28;19929;-76
2022/08/30 06:58:03;;;;;;;;;;;;;;;-144.99;76.00;52225.94;4970523;28;19937;-75
2022/08/30 07:00:30;;;;;;;;;;;;;;;-144.99;76.22;52234.09;4969708;28;19936;-78
2022/08/30 07:02:56;;;;;;;;;;;;;;;-144.99;76.31;52240.19;4972295;28;19937;-77
2022/08/30 07:05:23;;;;;;;;;;;;;;;-144.99;76.72;52240.19;4979230;28;19934;-75
2022/08/30 07:07:52;;;;;;;;;;;;;;;-144.99;76.47;52287.06;4627188;28;10000059;-74
2022/08/30 07:10:18;;;;;;;;;;;;;;;-144.99;76.64;52223.88;4969740;28;19936;-75
2022/08/30 07:12:45;;;;;;;;;;;;;;;-144.99;76.71;52227.97;4974933;28;20473;-77
2022/08/30 07:15:12;;;;;;;;;;;;;;;-144.99;76.59;52215.75;4974085;28;20309;-76
2022/08/30 07:20:22;;;;;;;;;;;;;;;-144.99;76.00;52250.38;4973541;28;20829;-75
2022/08/30 07:22:49;;;;;;;;;;;;;;;-144.99;75.40;52227.97;4982225;28;19926;-75
2022/08/30 07:25:17;;;;;;;;;;;;;;;-144.99;75.05;52230.00;4985241;28;20017;-75
2022/08/30 07:27:44;;;;;;;;;;;;;;;-144.99;74.67;52215.75;4982504;28;19936;-74
2022/08/30 07:30:12;;;;;;;;;;;;;;;-144.99;74.23;52225.94;4980450;28;19941;-75
2022/08/30 07:32:38;;;;;;;;;;;;;;;-144.99;73.95;52199.44;4983795;28;19933;-75
2022/08/30 07:35:05;;;;;;;;;;;;;;;-144.99;73.88;52219.81;4984149;28;19936;-74
2022/08/30 07:37:31;;;;;;;;;;;;;;;-144.99;73.26;52195.34;4983211;28;19930;-75
2022/08/30 07:39:58;;;;;;;;;;;;;;;-144.99;72.32;52207.59;4975252;28;19931;-74
2022/08/30 07:42:26;;;;;;;;;;;;;;;-144.99;72.17;52201.47;4980002;28;19930;-74
2022/08/30 07:44:52;;;;;;;;;;;;;;;-144.99;72.28;52213.69;4975331;28;19954;-74
2022/08/30 07:47:18;;;;;;;;;;;;;;;-144.99;71.96;52209.63;4974955;28;19936;-75
2022/08/30 07:49:45;;;;;;;;;;;;;;;-144.99;71.76;52195.34;4970082;28;20001;-76
2022/08/30 07:52:11;;;;;;;;;;;;;;;-144.99;71.34;52207.59;4972374;28;19984;-76
2022/08/30 07:54:38;;;;;;;;;;;;;;;-144.99;70.80;52174.97;4974579;28;20017;-76
2022/08/30 07:57:04;;;;;;;;;;;;;;;-144.99;70.81;52199.44;4973720;28;19997;-75
2022/08/30 07:59:32;;;;;;;;;;;;;;;-144.99;70.73;52183.13;4974222;28;19934;-75
2022/08/30 08:01:58;;;;;;;;;;;;;;;-144.99;69.84;52199.44;4971096;28;20413;-76
2022/08/30 08:04:25;;;;;;;;;;;;;;;-144.99;68.54;52205.53;4977136;28;20262;-75
2022/08/30 08:06:51;;;;;;;;;;;;;;;-144.99;68.80;52199.44;4972047;28;20021;-75
2022/08/30 08:09:18;;;;;;;;;;;;;;;-144.99;68.24;52162.75;4967457;28;20191;-76
2022/08/30 08:11:44;;;;;;;;;;;;;;;-144.99;67.97;52166.81;4973705;28;19926;-77
2022/08/30 08:14:11;;;;;;;;;;;;;;;-144.99;67.55;52170.91;4976812;28;19932;-75
2022/08/30 08:16:41;;;;;;;;;;;;;;;-144.99;66.45;52183.13;4980659;28;19941;-77
2022/08/30 08:19:07;;;;;;;;;;;;;;;-144.99;66.34;52195.34;4976538;28;19972;-75
2022/08/30 08:21:35;;;;;;;;;;;;;;;-144.99;66.13;52179.06;4972573;28;19934;-76
2022/08/30 08:24:01;;;;;;;;;;;;;;;-144.99;65.47;52152.56;4972804;28;19997;-75
2022/08/30 08:26:27;;;;;;;;;;;;;;;-144.99;64.96;52158.66;4972141;28;20037;-76
2022/08/30 08:28:54;;;;;;;;;;;;;;;-144.99;64.47;52199.44;4972451;28;19933;-77
2022/08/30 08:31:22;;;;;;;;;;;;;;;-144.99;64.57;52203.50;4968670;28;19934;-76
2022/08/30 08:33:50;;;;;;;;;;;;;;;-144.99;63.87;52179.06;4971643;28;20064;-76
2022/08/30 08:36:17;;;;;;;;;;;;;;;-144.99;62.91;52156.63;4971237;28;19926;-76
2022/08/30 08:38:43;;;;;;;;;;;;;;;-144.99;62.94;52158.66;4972440;28;20086;-75
2022/08/30 08:41:13;;;;;;;;;;;;;;;-144.99;62.75;52154.59;4961769;28;19934;-74
2022/08/30 08:43:40;;;;;;;;;;;;;;;-144.99;63.26;52215.75;4964885;28;20041;-74
2022/08/30 08:46:11;;;;;;;;;;;;;;;-144.99;63.89;52187.19;4970609;28;20404;-76
2022/08/30 08:48:41;;;;;;;;;;;;;;;-144.99;64.42;52195.34;4970445;28;20425;-76
2022/08/30 08:53:58;;;;;;;;;;;;;;;-144.99;64.97;52215.75;4958274;28;19941;-76
2022/08/30 08:56:24;;;;;;;;;;;;;;;-144.99;65.48;52191.28;4970625;28;19930;-76
2022/08/30 08:58:52;;;;;;;;;;;;;;;-144.99;65.44;52191.28;4971192;28;20000;-78
2022/08/30 09:01:19;;;;;;;;;;;;;;;-144.99;65.41;52183.13;4971575;28;19973;-75
2022/08/30 09:03:46;;;;;;;;;;;;;;;-144.99;65.27;52183.13;4969088;28;20037;-76
2022/08/30 09:06:23;;;;;;;;;;;;;;;-144.99;65.27;52215.75;4966739;28;19930;-76
2022/08/30 09:08:49;;;;;;;;;;;;;;;-144.99;65.30;52177.00;4969566;28;19977;-77
2022/08/30 09:11:21;;;;;;;;;;;;;;;-144.99;65.56;52179.06;4970795;28;20617;-75
2022/08/30 09:13:47;;;;;;;;;;;;;;;-144.99;65.43;52154.59;4963030;28;19930;-76
2022/08/30 09:16:41;;;;;;;;;;;;;;;-144.99;65.21;52191.28;4970503;28;19946;-77
2022/08/30 09:19:08;;;;;;;;;;;;;;;-144.99;64.92;52181.09;4964884;28;19937;-77
2022/08/30 09:21:37;;;;;;;;;;;;;;;-144.99;64.58;52177.00;4969920;28;20408;-76
2022/08/30 09:24:07;;;;;;;;;;;;;;;-144.99;63.58;52177.00;4967159;28;19972;-76
2022/08/30 09:26:35;;;;;;;;;;;;;;;-144.99;63.03;52162.75;4969197;28;19981;-75
2022/08/30 09:29:03;;;;;;;;;;;;;;;-144.99;62.85;52146.44;4965320;28;19938;-75
2022/08/30 09:31:31;;;;;;;;;;;;;;;-144.99;62.48;52181.09;4968949;28;19977;-75
2022/08/30 09:34:00;;;;;;;;;;;;;;;-144.99;62.22;52179.06;4965073;28;19936;-75
2022/08/30 09:36:27;;;;;;;;;;;;;;;-144.99;61.69;52166.81;4967541;28;19937;-76
2022/08/30 09:39:00;;;;;;;;;;;;;;;-144.99;61.16;52207.59;4969371;28;20489;-75
2022/08/30 09:41:28;;;;;;;;;;;;;;;-144.99;60.86;52164.78;4969259;28;19937;-75
2022/08/30 09:44:03;;;;;;;;;;;;;;;-144.99;60.11;52193.31;4964459;28;19927;-76
2022/08/30 09:46:30;;;;;;;;;;;;;;;-144.99;59.83;52181.09;4970123;28;19930;-76
2022/08/30 09:48:56;;;;;;;;;;;;;;;-144.99;60.23;52154.59;4968828;28;19930;-76
2022/08/30 09:51:35;;;;;;;;;;;;;;;-144.99;59.60;52181.09;4971475;28;19926;-76
2022/08/30 09:54:08;;;;;;;;;;;;;;;-144.99;58.62;52179.06;4967203;28;20420;-75
2022/08/30 09:56:39;;;;;;;;;;;;;;;-144.99;58.28;52168.84;4960494;28;19927;-77
2022/08/30 09:59:10;;;;;;;;;;;;;;;-144.99;58.14;52146.44;4969524;28;20309;-75
2022/08/30 10:01:39;;;;;;;;;;;;;;;-144.99;57.88;52154.59;4968939;28;19949;-77
2022/08/30 10:04:12;;;;;;;;;;;;;;;-144.99;56.92;52170.91;4969551;28;20001;-76
2022/08/30 10:06:41;;;;;;;;;;;;;;;-144.99;57.02;52179.06;4966439;28;19937;-76
2022/08/30 10:09:16;;;;;;;;;;;;;;;-144.99;56.30;52154.59;4971154;28;19932;-76
2022/08/30 10:11:47;;;;;;;;;;;;;;;-144.99;56.16;52170.91;4626490;28;10000060;-78
2022/08/30 10:14:34;;;;;;;;;;;;;;;-144.99;55.91;52174.97;4970000;28;20029;-77
2022/08/30 10:17:03;;;;;;;;;;;;;;;-144.99;55.57;52183.13;4968680;28;19930;-76
2022/08/30 10:19:39;;;;;;;;;;;;;;;-144.99;55.55;52152.56;4966880;28;19940;-75
2022/08/30 10:22:10;;;;;;;;;;;;;;;-144.99;55.50;52170.91;4960100;28;19934;-76
2022/08/30 10:24:42;;;;;;;;;;;;;;;-144.99;55.53;52162.75;4971057;28;19930;-76
2022/08/30 10:27:10;;;;;;;;;;;;;;;-144.99;55.45;52138.28;4970040;28;20044;-74
2022/08/30 10:29:40;;;;;;;;;;;;;;;-144.99;55.26;52140.31;4968707;28;19963;-74
2022/08/30 10:32:14;;;;;;;;;;;;;;;-144.99;55.26;52103.66;4967983;28;19926;-74
2022/08/30 10:34:44;;;;;;;;;;;;;;;-144.99;54.63;52138.28;4968645;28;20053;-75
2022/08/30 10:37:13;;;;;;;;;;;;;;;-144.99;53.37;52077.16;4963664;28;20456;-74
2022/08/30 10:39:42;;;;;;;;;;;;;;;-144.99;52.18;52058.81;4965172;28;20390;-75
2022/08/30 10:42:12;;;;;;;;;;;;;;;-144.99;50.33;52060.84;4971856;28;19926;-76
2022/08/30 10:44:41;;;;;;;;;;;;;;;-144.99;48.14;52003.78;4973764;28;19929;-75
2022/08/30 10:47:13;;;;;;;;;;;;;;;-144.99;46.78;51995.63;4969065;28;19926;-77
2022/08/30 10:49:43;;;;;;;;;;;;;;;-144.99;45.32;51954.88;4975325;28;19930;-76
2022/08/30 10:52:23;;;;;;;;;;;;;;;-144.99;43.89;51914.09;4981904;28;20013;-76
2022/08/30 10:54:52;;;;;;;;;;;;;;;-144.99;42.49;51901.88;4968085;28;19962;-75
2022/08/30 10:57:19;;;;;;;;;;;;;;;-144.99;41.27;51885.56;4972896;28;20029;-75
2022/08/30 10:59:48;;;;;;;;;;;;;;;-144.99;40.63;51897.81;4973156;28;20552;-75
2022/08/30 11:02:23;;;;;;;;;;;;;;;-144.99;40.36;51989.50;4970056;28;19926;-78
2022/08/30 11:05:07;;;;;;;;;;;;;;;-144.99;39.88;51836.66;4968251;28;20020;-76
2022/08/30 11:07:38;;;;;;;;;;;;;;;-144.99;38.80;51967.09;4960293;28;20021;-77
2022/08/30 11:10:34;;;;;;;;;;;;;;;-144.99;38.90;51848.91;4974831;28;19926;-79
2022/08/30 11:13:03;;;;;;;;;;;;;;;-144.99;39.26;52052.69;4973136;28;20024;-77
2022/08/30 11:15:31;;;;;;;;;;;;;;;-144.99;40.13;52052.69;4968733;28;19930;-77
2022/08/30 11:18:00;;;;;;;;;;;;;;;-144.99;41.21;52077.16;4967187;28;19927;-78
2022/08/30 11:20:32;;;;;;;;;;;;;;;-144.99;41.42;52007.84;4976349;28;20489;-78
2022/08/30 11:23:20;;;;;;;;;;;;;;;-144.99;41.18;51922.25;4976218;28;20033;-77
2022/08/30 11:25:49;;;;;;;;;;;;;;;-144.99;39.99;51885.56;4966856;28;19930;-75
2022/08/30 11:28:30;;;;;;;;;;;;;;;-144.99;39.77;51899.84;4977248;28;19926;-76
2022/08/30 11:31:04;;;;;;;;;;;;;;;-144.99;38.68;51873.34;4975457;28;20020;-78
2022/08/30 11:33:44;;;;;;;;;;;;;;;-144.99;37.93;51840.75;4976793;28;19926;-78
2022/08/30 11:36:12;;;;;;;;;;;;;;;-144.99;37.89;51991.56;4968272;28;19936;-77
2022/08/30 11:39:02;;;;;;;;;;;;;;;-144.99;38.49;52024.16;4976656;28;19914;-77
2022/08/30 11:41:32;;;;;;;;;;;;;;;-144.99;38.68;52034.34;4958044;28;19980;-77
2022/08/30 11:44:26;;;;;;;;;;;;;;;-144.99;39.41;52044.53;4977232;28;19969;-77
2022/08/30 11:46:53;;;;;;;;;;;;;;;-144.99;39.33;51910.03;4973661;28;20024;-77
2022/08/30 11:49:31;;;;;;;;;;;;;;;-144.99;38.92;52060.84;4977586;28;19934;-76
2022/08/30 11:52:10;;;;;;;;;;;;;;;-144.99;38.93;52044.53;4975197;28;20687;-76
2022/08/30 11:54:40;;;;;;;;;;;;;;;-144.99;39.02;52069.00;4969315;28;19930;-77
2022/08/30 11:57:13;;;;;;;;;;;;;;;-144.99;39.31;52056.78;4966113;28;19930;-76
2022/08/30 11:59:46;;;;;;;;;;;;;;;-144.99;39.89;51958.94;4974198;28;20014;-77
2022/08/30 12:02:27;;;;;;;;;;;;;;;-144.99;39.47;52056.78;4970002;28;20397;-77
2022/08/30 12:04:55;;;;;;;;;;;;;;;-144.99;39.41;51934.50;4973920;28;19970;-76
2022/08/30 12:07:36;;;;;;;;;;;;;;;-144.99;38.69;51991.56;4970315;28;19934;-77
2022/08/30 12:10:04;;;;;;;;;;;;;;;-144.99;38.05;51869.28;4973229;28;20417;-77
2022/08/30 12:12:58;;;;;;;;;;;;;;;-144.99;37.89;51995.63;4969199;28;19934;-77
2022/08/30 12:15:49;;;;;;;;;;;;;;;-144.99;38.21;52036.38;4939497;28;19926;-77
2022/08/30 12:18:29;;;;;;;;;;;;;;;-144.99;39.25;52101.59;4968615;28;19996;-77
2022/08/30 12:20:59;;;;;;;;;;;;;;;-144.99;39.66;52081.22;4970742;28;20405;-77
2022/08/30 12:23:33;;;;;;;;;;;;;;;-144.99;40.53;52087.34;4972236;28;19938;-75
2022/08/30 12:26:09;;;;;;;;;;;;;;;-144.99;40.91;52117.91;4973613;28;19984;-79
2022/08/30 12:28:36;;;;;;;;;;;;;;;-144.99;41.18;52095.50;4967984;28;20028;-76
2022/08/30 12:31:06;;;;;;;;;;;;;;;-144.99;41.64;52132.19;4971349;28;19934;-77
2022/08/30 12:33:38;;;;;;;;;;;;;;;-144.99;42.15;52093.44;4971474;28;19934;-78
2022/08/30 12:36:04;;;;;;;;;;;;;;;-144.99;41.92;52134.22;4972103;28;19930;-77
2022/08/30 12:38:31;;;;;;;;;;;;;;;-144.99;42.47;52117.91;4969923;28;19930;-76
2022/08/30 12:40:59;;;;;;;;;;;;;;;-144.99;42.41;52146.44;4969626;28;19930;-77
2022/08/30 12:43:27;;;;;;;;;;;;;;;-144.99;42.56;52138.28;4971716;28;19937;-76